sensor_id;sensor_type;location;lat;lon;timestamp;pressure;altitude;pressure_sealevel;temperature;humidity
40946;BME280;55635;50.264;11.918;2023-01-28T00:01:18;96185.09;;;2.06;84.42
40946;BME280;55635;50.264;11.918;2023-01-28T00:03:59;96201.97;;;2.25;84.36
40946;BME280;55635;50.264;11.918;2023-01-28T00:06:40;96205.44;;;2.25;84.25
40946;BME280;55635;50.264;11.918;2023-01-28T00:09:21;96198.66;;;2.23;84.12
40946;BME280;55635;50.264;11.918;2023-01-28T00:12:02;96194.59;;;2.30;83.74
40946;BME280;55635;50.264;11.918;2023-01-28T00:14:43;96193.53;;;2.32;83.55
40946;BME280;55635;50.264;11.918;2023-01-28T00:17:26;96190.22;;;2.08;84.35
40946;BME280;55635;50.264;11.918;2023-01-28T00:20:07;96182.59;;;2.05;84.41
40946;BME280;55635;50.264;11.918;2023-01-28T00:22:48;96195.91;;;2.13;83.96
40946;BME280;55635;50.264;11.918;2023-01-28T00:25:30;96186.03;;;2.05;83.77
40946;BME280;55635;50.264;11.918;2023-01-28T00:28:11;96186.75;;;2.18;83.08
40946;BME280;55635;50.264;11.918;2023-01-28T00:30:52;96188.41;;;2.08;83.09
40946;BME280;55635;50.264;11.918;2023-01-28T00:33:33;96173.09;;;2.04;83.11
40946;BME280;55635;50.264;11.918;2023-01-28T00:36:15;96181.31;;;2.10;83.12
40946;BME280;55635;50.264;11.918;2023-01-28T00:38:58;96190.66;;;2.24;82.70
40946;BME280;55635;50.264;11.918;2023-01-28T00:41:39;96202.56;;;2.28;82.44
40946;BME280;55635;50.264;11.918;2023-01-28T00:44:20;96185.44;;;2.24;82.30
40946;BME280;55635;50.264;11.918;2023-01-28T00:47:02;96185.91;;;2.40;81.93
40946;BME280;55635;50.264;11.918;2023-01-28T00:49:43;96182.25;;;2.32;81.72
40946;BME280;55635;50.264;11.918;2023-01-28T00:55:25;96182.59;;;2.16;83.18
40946;BME280;55635;50.264;11.918;2023-01-28T00:58:07;96185.09;;;2.06;83.63
40946;BME280;55635;50.264;11.918;2023-01-28T01:00:50;96205.66;;;2.22;83.78
40946;BME280;55635;50.264;11.918;2023-01-28T01:03:31;96188.19;;;2.11;83.72
40946;BME280;55635;50.264;11.918;2023-01-28T01:06:14;96191.63;;;2.12;83.79
40946;BME280;55635;50.264;11.918;2023-01-28T01:08:55;96175.47;;;2.07;83.37
40946;BME280;55635;50.264;11.918;2023-01-28T01:11:36;96190.56;;;2.14;83.80
40946;BME280;55635;50.264;11.918;2023-01-28T01:14:17;96174.97;;;2.02;83.90
40946;BME280;55635;50.264;11.918;2023-01-28T01:16:58;96201.75;;;2.16;83.99
40946;BME280;55635;50.264;11.918;2023-01-28T01:19:39;96184.03;;;1.98;84.50
40946;BME280;55635;50.264;11.918;2023-01-28T01:22:23;96194.03;;;2.04;84.41
40946;BME280;55635;50.264;11.918;2023-01-28T01:25:05;96187.38;;;2.11;83.90
40946;BME280;55635;50.264;11.918;2023-01-28T01:27:48;96202.56;;;2.28;83.48
40946;BME280;55635;50.264;11.918;2023-01-28T01:30:29;96199.25;;;2.26;83.51
40946;BME280;55635;50.264;11.918;2023-01-28T01:33:10;96195.91;;;2.24;83.53
40946;BME280;55635;50.264;11.918;2023-01-28T01:35:55;96206.84;;;2.29;83.66
40946;BME280;55635;50.264;11.918;2023-01-28T01:38:36;96199.97;;;2.06;84.25
40946;BME280;55635;50.264;11.918;2023-01-28T01:41:29;96199.94;;;2.28;84.05
40946;BME280;55635;50.264;11.918;2023-01-28T01:53:52;96194.75;;;1.95;85.20
40946;BME280;55635;50.264;11.918;2023-01-28T01:56:39;96199.25;;;2.15;84.72
40946;BME280;55635;50.264;11.918;2023-01-28T01:59:29;96217.06;;;2.21;85.11
40946;BME280;55635;50.264;11.918;2023-01-28T02:02:11;96199.97;;;2.17;84.63
40946;BME280;55635;50.264;11.918;2023-01-28T02:04:52;96185.22;;;1.83;85.47
40946;BME280;55635;50.264;11.918;2023-01-28T02:07:34;96195.91;;;2.02;85.36
40946;BME280;55635;50.264;11.918;2023-01-28T02:10:17;96181.78;;;2.04;85.16
40946;BME280;55635;50.264;11.918;2023-01-28T02:12:58;96208.50;;;1.97;85.48
40946;BME280;55635;50.264;11.918;2023-01-28T02:15:41;96201.59;;;1.96;85.62
40946;BME280;55635;50.264;11.918;2023-01-28T02:18:22;96210.31;;;2.07;85.03
40946;BME280;55635;50.264;11.918;2023-01-28T02:28:11;96215.16;;;2.45;84.42
40946;BME280;55635;50.264;11.918;2023-01-28T02:34:24;96204.69;;;2.34;84.26
40946;BME280;55635;50.264;11.918;2023-01-28T02:38:15;96209.94;;;2.34;83.96
40946;BME280;55635;50.264;11.918;2023-01-28T02:41:05;96212.06;;;2.40;84.71
40946;BME280;55635;50.264;11.918;2023-01-28T02:43:50;96209.91;;;2.45;83.57
40946;BME280;55635;50.264;11.918;2023-01-28T02:46:36;96209.91;;;2.45;84.02
40946;BME280;55635;50.264;11.918;2023-01-28T02:50:01;96207.66;;;2.52;83.40
40946;BME280;55635;50.264;11.918;2023-01-28T02:53:04;96215.59;;;2.61;83.43
40946;BME280;55635;50.264;11.918;2023-01-28T02:56:33;96218.81;;;2.54;83.74
40946;BME280;55635;50.264;11.918;2023-01-28T02:59:25;96220.00;;;2.61;82.98
40946;BME280;55635;50.264;11.918;2023-01-28T03:08:08;96210.63;;;2.47;83.19
40946;BME280;55635;50.264;11.918;2023-01-28T03:11:08;96216.34;;;2.52;82.94
40946;BME280;55635;50.264;11.918;2023-01-28T03:14:09;96218.00;;;2.53;83.18
40946;BME280;55635;50.264;11.918;2023-01-28T03:17:31;96217.53;;;2.59;82.71
40946;BME280;55635;50.264;11.918;2023-01-28T03:27:29;96214.22;;;2.35;84.26
40946;BME280;55635;50.264;11.918;2023-01-28T03:31:09;96231.22;;;2.30;84.79
40946;BME280;55635;50.264;11.918;2023-01-28T03:34:13;96221.59;;;1.97;85.61
40946;BME280;55635;50.264;11.918;2023-01-28T03:37:12;96230.28;;;1.97;85.59
40946;BME280;55635;50.264;11.918;2023-01-28T03:40:06;96225.50;;;1.91;85.46
40946;BME280;55635;50.264;11.918;2023-01-28T03:42:47;96228.72;;;1.95;86.04
40946;BME280;55635;50.264;11.918;2023-01-28T03:45:45;96235.50;;;1.97;85.92
40946;BME280;55635;50.264;11.918;2023-01-28T03:48:31;96238.91;;;1.87;86.02
40946;BME280;55635;50.264;11.918;2023-01-28T03:51:15;96245.25;;;2.06;85.51
40946;BME280;55635;50.264;11.918;2023-01-28T03:53:57;96237.97;;;1.77;85.92
40946;BME280;55635;50.264;11.918;2023-01-28T03:56:57;96241.75;;;1.84;85.67
40946;BME280;55635;50.264;11.918;2023-01-28T03:59:38;96232.19;;;1.95;85.19
40946;BME280;55635;50.264;11.918;2023-01-28T04:02:21;96246.06;;;2.18;84.20
40946;BME280;55635;50.264;11.918;2023-01-28T04:05:05;96241.69;;;2.07;84.13
40946;BME280;55635;50.264;11.918;2023-01-28T04:07:49;96225.97;;;1.74;85.48
40946;BME280;55635;50.264;11.918;2023-01-28T04:10:54;96238.63;;;1.56;86.59
40946;BME280;55635;50.264;11.918;2023-01-28T04:13:41;96261.13;;;1.81;85.95
40946;BME280;55635;50.264;11.918;2023-01-28T04:16:23;96238.44;;;1.71;85.79
40946;BME280;55635;50.264;11.918;2023-01-28T04:19:04;96252.22;;;1.73;85.99
40946;BME280;55635;50.264;11.918;2023-01-28T04:21:46;96248.13;;;1.57;86.47
40946;BME280;55635;50.264;11.918;2023-01-28T04:24:29;96251.22;;;1.62;86.48
40946;BME280;55635;50.264;11.918;2023-01-28T04:27:10;96264.19;;;1.64;86.56
40946;BME280;55635;50.264;11.918;2023-01-28T04:29:51;96245.53;;;1.69;85.43
40946;BME280;55635;50.264;11.918;2023-01-28T04:33:05;96259.59;;;1.79;85.03
40946;BME280;55635;50.264;11.918;2023-01-28T04:35:55;96250.06;;;1.67;85.38
40946;BME280;55635;50.264;11.918;2023-01-28T04:38:59;96262.56;;;1.74;85.75
40946;BME280;55635;50.264;11.918;2023-01-28T04:42:03;96248.56;;;1.40;86.28
40946;BME280;55635;50.264;11.918;2023-01-28T04:45:00;96262.44;;;1.76;85.82
40946;BME280;55635;50.264;11.918;2023-01-28T04:47:59;96258.59;;;1.69;85.72
40946;BME280;55635;50.264;11.918;2023-01-28T04:50:46;96272.78;;;1.88;85.76
40946;BME280;55635;50.264;11.918;2023-01-28T04:53:46;96270.41;;;1.85;85.57
40946;BME280;55635;50.264;11.918;2023-01-28T04:56:43;96279.47;;;1.92;85.03
40946;BME280;55635;50.264;11.918;2023-01-28T04:59:24;96263.78;;;1.92;84.59
40946;BME280;55635;50.264;11.918;2023-01-28T05:02:05;96255.03;;;1.58;86.23
40946;BME280;55635;50.264;11.918;2023-01-28T05:04:47;96272.34;;;1.94;85.44
40946;BME280;55635;50.264;11.918;2023-01-28T05:07:42;96265.06;;;1.87;86.47
40946;BME280;55635;50.264;11.918;2023-01-28T05:10:25;96249.88;;;1.92;85.60
40946;BME280;55635;50.264;11.918;2023-01-28T05:13:08;96267.56;;;1.88;86.04
40946;BME280;55635;50.264;11.918;2023-01-28T05:15:52;96243.28;;;1.75;85.48
40946;BME280;55635;50.264;11.918;2023-01-28T05:18:34;96284.03;;;1.67;85.69
40946;BME280;55635;50.264;11.918;2023-01-28T05:21:34;96280.03;;;1.74;85.82
40946;BME280;55635;50.264;11.918;2023-01-28T05:24:19;96278.88;;;2.00;85.23
40946;BME280;55635;50.264;11.918;2023-01-28T05:27:01;96281.94;;;1.83;85.04
40946;BME280;55635;50.264;11.918;2023-01-28T05:29:42;96277.78;;;1.91;84.30
40946;BME280;55635;50.264;11.918;2023-01-28T05:32:24;96273.03;;;1.85;84.85
40946;BME280;55635;50.264;11.918;2023-01-28T05:35:06;96278.34;;;1.73;84.82
40946;BME280;55635;50.264;11.918;2023-01-28T05:37:48;96285.78;;;1.55;85.08
40946;BME280;55635;50.264;11.918;2023-01-28T05:40:31;96264.66;;;1.58;84.78
40946;BME280;55635;50.264;11.918;2023-01-28T05:43:12;96288.09;;;1.82;84.23
40946;BME280;55635;50.264;11.918;2023-01-28T05:45:59;96280.56;;;1.66;84.36
40946;BME280;55635;50.264;11.918;2023-01-28T05:49:09;96290.72;;;1.47;84.12
40946;BME280;55635;50.264;11.918;2023-01-28T05:52:08;96279.16;;;1.62;83.47
40946;BME280;55635;50.264;11.918;2023-01-28T05:54:49;96293.78;;;1.64;83.67
40946;BME280;55635;50.264;11.918;2023-01-28T05:57:30;96287.53;;;1.43;83.32
40946;BME280;55635;50.264;11.918;2023-01-28T06:00:12;96291.53;;;1.36;83.94
40946;BME280;55635;50.264;11.918;2023-01-28T06:02:59;96297.44;;;1.27;84.46
40946;BME280;55635;50.264;11.918;2023-01-28T06:05:40;96295.53;;;1.29;84.89
40946;BME280;55635;50.264;11.918;2023-01-28T06:08:22;96304.41;;;1.50;84.37
40946;BME280;55635;50.264;11.918;2023-01-28T06:11:03;96294.91;;;1.26;84.37
40946;BME280;55635;50.264;11.918;2023-01-28T06:13:47;96305.31;;;1.38;83.87
40946;BME280;55635;50.264;11.918;2023-01-28T06:16:40;96308.06;;;1.48;84.00
40946;BME280;55635;50.264;11.918;2023-01-28T06:19:53;96310.44;;;1.16;84.90
40946;BME280;55635;50.264;11.918;2023-01-28T06:22:34;96310.59;;;1.26;84.67
40946;BME280;55635;50.264;11.918;2023-01-28T06:25:16;96321.41;;;1.32;84.51
40946;BME280;55635;50.264;11.918;2023-01-28T06:27:57;96328.19;;;1.35;83.92
40946;BME280;55635;50.264;11.918;2023-01-28T06:30:37;96315.34;;;1.32;83.86
40946;BME280;55635;50.264;11.918;2023-01-28T06:33:19;96314.03;;;1.26;83.50
40946;BME280;55635;50.264;11.918;2023-01-28T06:36:04;96318.34;;;1.38;83.27
40946;BME280;55635;50.264;11.918;2023-01-28T06:38:46;96340.97;;;1.27;83.03
40946;BME280;55635;50.264;11.918;2023-01-28T06:41:27;96344.16;;;1.19;83.09
40946;BME280;55635;50.264;11.918;2023-01-28T06:44:08;96347.53;;;1.32;82.57
40946;BME280;55635;50.264;11.918;2023-01-28T06:46:49;96354.88;;;1.27;82.30
40946;BME280;55635;50.264;11.918;2023-01-28T06:49:30;96353.88;;;1.17;81.51
40946;BME280;55635;50.264;11.918;2023-01-28T06:52:11;96338.03;;;1.07;81.91
40946;BME280;55635;50.264;11.918;2023-01-28T06:54:55;96361.22;;;1.12;81.18
40946;BME280;55635;50.264;11.918;2023-01-28T06:57:39;96365.84;;;0.96;81.36
40946;BME280;55635;50.264;11.918;2023-01-28T07:00:21;96354.00;;;0.67;81.79
40946;BME280;55635;50.264;11.918;2023-01-28T07:03:02;96379.38;;;1.01;82.33
40946;BME280;55635;50.264;11.918;2023-01-28T07:05:43;96365.44;;;0.89;82.60
40946;BME280;55635;50.264;11.918;2023-01-28T07:08:24;96382.84;;;1.01;82.80
40946;BME280;55635;50.264;11.918;2023-01-28T07:11:06;96372.75;;;0.84;82.75
40946;BME280;55635;50.264;11.918;2023-01-28T07:13:47;96394.22;;;1.13;82.36
40946;BME280;55635;50.264;11.918;2023-01-28T07:16:28;96385.19;;;1.17;81.66
40946;BME280;55635;50.264;11.918;2023-01-28T07:19:09;96385.59;;;1.24;81.67
40946;BME280;55635;50.264;11.918;2023-01-28T07:21:50;96397.63;;;1.50;81.16
40946;BME280;55635;50.264;11.918;2023-01-28T07:24:31;96392.38;;;1.50;81.27
40946;BME280;55635;50.264;11.918;2023-01-28T07:27:13;96399.28;;;1.51;80.84
40946;BME280;55635;50.264;11.918;2023-01-28T07:29:54;96372.00;;;1.31;80.62
40946;BME280;55635;50.264;11.918;2023-01-28T07:32:35;96384.09;;;1.32;80.95
40946;BME280;55635;50.264;11.918;2023-01-28T07:35:16;96396.09;;;1.35;81.22
40946;BME280;55635;50.264;11.918;2023-01-28T07:38:00;96392.72;;;1.45;81.21
40946;BME280;55635;50.264;11.918;2023-01-28T07:40:41;96385.13;;;1.42;80.92
40946;BME280;55635;50.264;11.918;2023-01-28T07:43:22;96376.50;;;1.29;81.14
40946;BME280;55635;50.264;11.918;2023-01-28T07:46:04;96389.28;;;1.45;80.77
40946;BME280;55635;50.264;11.918;2023-01-28T07:48:45;96402.03;;;1.49;80.95
40946;BME280;55635;50.264;11.918;2023-01-28T07:51:26;96390.91;;;1.58;80.45
40946;BME280;55635;50.264;11.918;2023-01-28T07:54:08;96411.38;;;1.64;80.05
40946;BME280;55635;50.264;11.918;2023-01-28T07:56:49;96392.69;;;1.58;79.99
40946;BME280;55635;50.264;11.918;2023-01-28T07:59:29;96416.88;;;1.73;79.43
40946;BME280;55635;50.264;11.918;2023-01-28T08:02:11;96400.34;;;1.48;79.05
40946;BME280;55635;50.264;11.918;2023-01-28T08:04:52;96397.25;;;1.43;79.01
40946;BME280;55635;50.264;11.918;2023-01-28T08:07:33;96402.91;;;1.37;79.63
40946;BME280;55635;50.264;11.918;2023-01-28T08:10:16;96401.84;;;1.40;79.87
40946;BME280;55635;50.264;11.918;2023-01-28T08:12:57;96416.41;;;1.31;80.31
40946;BME280;55635;50.264;11.918;2023-01-28T08:15:39;96404.78;;;1.35;79.97
40946;BME280;55635;50.264;11.918;2023-01-28T08:18:20;96400.00;;;1.29;81.57
40946;BME280;55635;50.264;11.918;2023-01-28T08:21:01;96418.09;;;1.20;81.24
40946;BME280;55635;50.264;11.918;2023-01-28T08:23:44;96417.72;;;1.13;80.96
40946;BME280;55635;50.264;11.918;2023-01-28T08:26:25;96413.84;;;1.19;81.48
40946;BME280;55635;50.264;11.918;2023-01-28T08:29:06;96417.66;;;1.26;80.61
40946;BME280;55635;50.264;11.918;2023-01-28T08:31:47;96414.13;;;1.27;81.20
40946;BME280;55635;50.264;11.918;2023-01-28T08:34:28;96401.84;;;1.16;80.46
40946;BME280;55635;50.264;11.918;2023-01-28T08:37:09;96421.28;;;1.36;79.98
40946;BME280;55635;50.264;11.918;2023-01-28T08:39:50;96421.88;;;1.16;81.16
40946;BME280;55635;50.264;11.918;2023-01-28T08:42:31;96426.34;;;1.26;80.72
40946;BME280;55635;50.264;11.918;2023-01-28T08:45:12;96431.75;;;1.36;79.85
40946;BME280;55635;50.264;11.918;2023-01-28T08:48:04;96432.53;;;1.49;79.49
40946;BME280;55635;50.264;11.918;2023-01-28T08:50:46;96430.47;;;1.41;79.80
40946;BME280;55635;50.264;11.918;2023-01-28T08:53:27;96415.41;;;1.45;79.16
40946;BME280;55635;50.264;11.918;2023-01-28T08:56:08;96440.19;;;1.39;79.34
40946;BME280;55635;50.264;11.918;2023-01-28T08:58:49;96427.19;;;1.50;79.31
40946;BME280;55635;50.264;11.918;2023-01-28T09:01:30;96435.59;;;1.43;78.56
40946;BME280;55635;50.264;11.918;2023-01-28T09:04:11;96443.94;;;1.48;78.52
40946;BME280;55635;50.264;11.918;2023-01-28T09:06:53;96453.84;;;1.55;77.81
40946;BME280;55635;50.264;11.918;2023-01-28T09:09:34;96451.00;;;1.22;78.39
40946;BME280;55635;50.264;11.918;2023-01-28T09:12:15;96460.72;;;1.56;77.88
40946;BME280;55635;50.264;11.918;2023-01-28T09:14:57;96456.34;;;1.57;77.06
40946;BME280;55635;50.264;11.918;2023-01-28T09:17:39;96463.63;;;1.64;76.79
40946;BME280;55635;50.264;11.918;2023-01-28T09:20:20;96460.59;;;1.71;76.01
40946;BME280;55635;50.264;11.918;2023-01-28T09:23:01;96467.31;;;1.86;75.21
40946;BME280;55635;50.264;11.918;2023-01-28T09:25:42;96457.25;;;1.92;74.85
40946;BME280;55635;50.264;11.918;2023-01-28T09:28:23;96464.69;;;2.09;74.13
40946;BME280;55635;50.264;11.918;2023-01-28T09:31:07;96480.84;;;2.14;74.40
40946;BME280;55635;50.264;11.918;2023-01-28T09:33:51;96479.94;;;2.50;73.66
40946;BME280;55635;50.264;11.918;2023-01-28T09:36:36;96480.88;;;2.49;72.50
40946;BME280;55635;50.264;11.918;2023-01-28T09:39:17;96474.38;;;2.66;72.22
40946;BME280;55635;50.264;11.918;2023-01-28T09:42:36;96474.78;;;2.84;71.61
40946;BME280;55635;50.264;11.918;2023-01-28T09:45:35;96474.34;;;2.55;71.86
40946;BME280;55635;50.264;11.918;2023-01-28T09:48:27;96479.88;;;2.85;71.17
40946;BME280;55635;50.264;11.918;2023-01-28T09:51:40;96478.47;;;2.81;71.44
40946;BME280;55635;50.264;11.918;2023-01-28T09:54:44;96488.25;;;2.90;70.78
40946;BME280;55635;50.264;11.918;2023-01-28T09:57:38;96484.53;;;3.04;70.07
40946;BME280;55635;50.264;11.918;2023-01-28T10:00:34;96464.88;;;2.76;69.86
40946;BME280;55635;50.264;11.918;2023-01-28T10:07:29;96471.91;;;2.87;69.75
40946;BME280;55635;50.264;11.918;2023-01-28T10:13:45;96479.97;;;2.72;69.79
40946;BME280;55635;50.264;11.918;2023-01-28T10:16:44;96478.63;;;2.56;70.46
40946;BME280;55635;50.264;11.918;2023-01-28T10:19:31;96481.50;;;2.53;69.86
40946;BME280;55635;50.264;11.918;2023-01-28T10:22:53;96478.31;;;2.71;69.74
40946;BME280;55635;50.264;11.918;2023-01-28T10:25:36;96482.78;;;2.47;69.60
40946;BME280;55635;50.264;11.918;2023-01-28T10:28:28;96493.09;;;2.38;70.71
40946;BME280;55635;50.264;11.918;2023-01-28T10:31:12;96493.19;;;2.36;70.51
40946;BME280;55635;50.264;11.918;2023-01-28T10:33:56;96481.81;;;2.48;69.83
40946;BME280;55635;50.264;11.918;2023-01-28T10:36:38;96477.81;;;2.55;69.37
40946;BME280;55635;50.264;11.918;2023-01-28T10:39:21;96476.97;;;2.55;69.75
40946;BME280;55635;50.264;11.918;2023-01-28T10:42:26;96490.34;;;2.85;70.07
40946;BME280;55635;50.264;11.918;2023-01-28T10:45:20;96483.44;;;2.73;68.55
40946;BME280;55635;50.264;11.918;2023-01-28T10:50:55;96480.97;;;2.48;69.55
40946;BME280;55635;50.264;11.918;2023-01-28T10:53:45;96493.38;;;2.57;69.25
40946;BME280;55635;50.264;11.918;2023-01-28T10:56:32;96507.66;;;2.53;69.22
40946;BME280;55635;50.264;11.918;2023-01-28T10:59:28;96497.47;;;2.26;69.78
40946;BME280;55635;50.264;11.918;2023-01-28T11:08:16;96499.22;;;2.02;68.95
40946;BME280;55635;50.264;11.918;2023-01-28T11:10:58;96503.16;;;2.20;69.57
40946;BME280;55635;50.264;11.918;2023-01-28T11:13:49;96501.41;;;2.32;68.01
40946;BME280;55635;50.264;11.918;2023-01-28T11:16:31;96501.47;;;2.19;67.58
40946;BME280;55635;50.264;11.918;2023-01-28T11:19:12;96499.41;;;2.35;67.41
40946;BME280;55635;50.264;11.918;2023-01-28T11:21:55;96488.72;;;2.38;67.93
40946;BME280;55635;50.264;11.918;2023-01-28T11:24:36;96511.22;;;2.52;67.82
40946;BME280;55635;50.264;11.918;2023-01-28T11:27:18;96506.50;;;2.33;68.10
40946;BME280;55635;50.264;11.918;2023-01-28T11:30:15;96508.78;;;2.38;67.62
40946;BME280;55635;50.264;11.918;2023-01-28T11:33:19;96500.56;;;2.31;66.80
40946;BME280;55635;50.264;11.918;2023-01-28T11:36:12;96512.16;;;2.16;67.29
40946;BME280;55635;50.264;11.918;2023-01-28T11:41:37;96515.22;;;2.10;67.73
40946;BME280;55635;50.264;11.918;2023-01-28T11:44:25;96499.09;;;1.92;67.66
40946;BME280;55635;50.264;11.918;2023-01-28T11:50:38;96496.38;;;1.81;66.05
40946;BME280;55635;50.264;11.918;2023-01-28T11:57:22;96502.44;;;1.82;66.38
40946;BME280;55635;50.264;11.918;2023-01-28T12:00:32;96492.41;;;1.88;66.69
40946;BME280;55635;50.264;11.918;2023-01-28T12:06:53;96487.38;;;1.85;65.90
40946;BME280;55635;50.264;11.918;2023-01-28T12:09:59;96488.53;;;2.05;66.72
40946;BME280;55635;50.264;11.918;2023-01-28T12:19:27;96483.03;;;2.20;66.04
40946;BME280;55635;50.264;11.918;2023-01-28T12:25:21;96482.38;;;2.06;66.69
40946;BME280;55635;50.264;11.918;2023-01-28T12:28:07;96472.63;;;1.84;66.54
40946;BME280;55635;50.264;11.918;2023-01-28T12:44:02;96466.66;;;1.95;64.43
40946;BME280;55635;50.264;11.918;2023-01-28T12:47:10;96460.47;;;1.72;64.14
40946;BME280;55635;50.264;11.918;2023-01-28T12:50:15;96471.28;;;1.55;64.31
40946;BME280;55635;50.264;11.918;2023-01-28T12:59:28;96473.28;;;1.51;63.97
40946;BME280;55635;50.264;11.918;2023-01-28T13:02:16;96465.59;;;1.37;64.16
40946;BME280;55635;50.264;11.918;2023-01-28T13:05:13;96458.25;;;1.42;63.70
40946;BME280;55635;50.264;11.918;2023-01-28T13:08:09;96472.69;;;1.35;64.38
40946;BME280;55635;50.264;11.918;2023-01-28T13:10:51;96471.09;;;1.45;63.65
40946;BME280;55635;50.264;11.918;2023-01-28T13:13:41;96476.53;;;1.55;63.79
40946;BME280;55635;50.264;11.918;2023-01-28T13:16:24;96469.66;;;1.29;63.96
40946;BME280;55635;50.264;11.918;2023-01-28T13:22:24;96463.06;;;1.48;63.27
40946;BME280;55635;50.264;11.918;2023-01-28T13:25:23;96482.16;;;1.61;63.90
40946;BME280;55635;50.264;11.918;2023-01-28T13:28:28;96478.66;;;1.74;63.58
40946;BME280;55635;50.264;11.918;2023-01-28T13:31:12;96474.22;;;1.50;63.32
40946;BME280;55635;50.264;11.918;2023-01-28T13:36:45;96464.13;;;1.70;63.52
40946;BME280;55635;50.264;11.918;2023-01-28T13:39:28;96467.91;;;1.65;63.07
40946;BME280;55635;50.264;11.918;2023-01-28T13:48:25;96493.25;;;1.52;63.47
40946;BME280;55635;50.264;11.918;2023-01-28T13:51:03;96482.94;;;1.38;63.89
40946;BME280;55635;50.264;11.918;2023-01-28T13:54:03;96473.81;;;1.44;63.39
40946;BME280;55635;50.264;11.918;2023-01-28T14:16:33;96514.19;;;1.27;63.95
40946;BME280;55635;50.264;11.918;2023-01-28T14:19:30;96519.97;;;1.07;65.43
40946;BME280;55635;50.264;11.918;2023-01-28T14:22:18;96523.38;;;0.95;64.52
40946;BME280;55635;50.264;11.918;2023-01-28T14:25:00;96533.31;;;1.02;64.20
40946;BME280;55635;50.264;11.918;2023-01-28T14:27:47;96517.66;;;0.90;64.27
40946;BME280;55635;50.264;11.918;2023-01-28T14:30:54;96528.06;;;0.65;65.24
40946;BME280;55635;50.264;11.918;2023-01-28T14:33:37;96518.41;;;0.40;64.80
40946;BME280;55635;50.264;11.918;2023-01-28T14:36:20;96535.22;;;0.36;65.12
40946;BME280;55635;50.264;11.918;2023-01-28T14:39:01;96530.84;;;0.36;66.55
40946;BME280;55635;50.264;11.918;2023-01-28T14:41:45;96523.59;;;0.15;66.63
40946;BME280;55635;50.264;11.918;2023-01-28T14:44:39;96542.22;;;0.35;65.51
40946;BME280;55635;50.264;11.918;2023-01-28T14:47:51;96548.03;;;0.26;65.89
40946;BME280;55635;50.264;11.918;2023-01-28T14:51:10;96553.72;;;0.06;67.09
40946;BME280;55635;50.264;11.918;2023-01-28T14:57:47;96542.13;;;0.10;66.81
40946;BME280;55635;50.264;11.918;2023-01-28T15:00:34;96521.53;;;-0.07;67.59
40946;BME280;55635;50.264;11.918;2023-01-28T15:03:20;96546.47;;;0.24;66.80
40946;BME280;55635;50.264;11.918;2023-01-28T15:06:14;96538.69;;;0.10;66.94
40946;BME280;55635;50.264;11.918;2023-01-28T15:09:07;96537.16;;;0.20;66.24
40946;BME280;55635;50.264;11.918;2023-01-28T15:11:53;96537.22;;;0.06;66.39
40946;BME280;55635;50.264;11.918;2023-01-28T15:14:36;96548.38;;;0.08;66.15
40946;BME280;55635;50.264;11.918;2023-01-28T15:17:26;96553.25;;;-0.01;66.35
40946;BME280;55635;50.264;11.918;2023-01-28T15:20:08;96555.59;;;-0.10;66.51
40946;BME280;55635;50.264;11.918;2023-01-28T15:22:51;96554.19;;;-0.02;66.23
40946;BME280;55635;50.264;11.918;2023-01-28T15:25:33;96547.03;;;-0.12;67.09
40946;BME280;55635;50.264;11.918;2023-01-28T15:28:28;96550.28;;;-0.09;66.87
40946;BME280;55635;50.264;11.918;2023-01-28T15:31:36;96553.34;;;-0.02;66.48
40946;BME280;55635;50.264;11.918;2023-01-28T15:34:19;96559.78;;;-0.08;66.22
40946;BME280;55635;50.264;11.918;2023-01-28T15:37:01;96566.41;;;-0.16;66.68
40946;BME280;55635;50.264;11.918;2023-01-28T15:39:42;96567.88;;;-0.12;67.08
40946;BME280;55635;50.264;11.918;2023-01-28T15:42:24;96547.47;;;-0.06;66.96
40946;BME280;55635;50.264;11.918;2023-01-28T15:45:20;96553.84;;;-0.10;67.23
40946;BME280;55635;50.264;11.918;2023-01-28T15:48:05;96549.22;;;-0.19;66.83
40946;BME280;55635;50.264;11.918;2023-01-28T15:50:58;96542.41;;;-0.21;66.82
40946;BME280;55635;50.264;11.918;2023-01-28T15:53:45;96549.16;;;-0.31;67.60
40946;BME280;55635;50.264;11.918;2023-01-28T15:56:30;96545.59;;;-0.30;67.29
40946;BME280;55635;50.264;11.918;2023-01-28T15:59:25;96558.53;;;-0.29;67.16
40946;BME280;55635;50.264;11.918;2023-01-28T16:02:22;96561.34;;;-0.32;67.10
40946;BME280;55635;50.264;11.918;2023-01-28T16:05:05;96561.53;;;-0.35;66.25
40946;BME280;55635;50.264;11.918;2023-01-28T16:07:50;96556.19;;;-0.19;66.05
40946;BME280;55635;50.264;11.918;2023-01-28T16:10:32;96539.81;;;-0.21;66.06
40946;BME280;55635;50.264;11.918;2023-01-28T16:13:21;96517.25;;;-0.35;66.66
40946;BME280;55635;50.264;11.918;2023-01-28T16:16:04;96506.69;;;-0.46;67.02
40946;BME280;55635;50.264;11.918;2023-01-28T16:18:47;96516.00;;;-0.29;66.72
40946;BME280;55635;50.264;11.918;2023-01-28T16:21:37;96540.63;;;-0.21;66.38
40946;BME280;55635;50.264;11.918;2023-01-28T16:24:27;96542.66;;;-0.12;66.36
40946;BME280;55635;50.264;11.918;2023-01-28T16:27:36;96542.13;;;-0.17;65.95
40946;BME280;55635;50.264;11.918;2023-01-28T16:30:20;96540.56;;;-0.33;65.85
40946;BME280;55635;50.264;11.918;2023-01-28T16:33:01;96534.28;;;-0.43;66.28
40946;BME280;55635;50.264;11.918;2023-01-28T16:35:42;96529.72;;;-0.54;66.02
40946;BME280;55635;50.264;11.918;2023-01-28T16:38:24;96536.13;;;-0.45;66.79
40946;BME280;55635;50.264;11.918;2023-01-28T16:41:10;96530.53;;;-0.39;66.84
40946;BME280;55635;50.264;11.918;2023-01-28T16:43:52;96531.25;;;-0.23;66.49
40946;BME280;55635;50.264;11.918;2023-01-28T16:46:33;96536.06;;;-0.17;66.31
40946;BME280;55635;50.264;11.918;2023-01-28T16:49:15;96538.47;;;-0.14;66.34
40946;BME280;55635;50.264;11.918;2023-01-28T16:51:56;96544.44;;;-0.12;66.05
40946;BME280;55635;50.264;11.918;2023-01-28T16:55:02;96547.19;;;-0.28;66.89
40946;BME280;55635;50.264;11.918;2023-01-28T16:57:45;96522.31;;;-0.46;67.19